Terminal Aerodrome Forecast
Issued by NWS

Home | Current Version | Previous Version | Text Only | Print | Product List | Glossary On
Versions: 1 2 3 4 5 6 7 8 9 10 11 12 13 14 15 16 17 18 19
279
FTUS46 KMFR 201154
TAFLMT
TAF
KLMT 201154Z 2012/2112 17025G35KT P6SM SCT060 BKN080
     FM201600 19025G35KT P6SM -SHRA BKN040 OVC060
     FM202000 21021G29KT P6SM -SHRA BKN040 OVC060
     FM210100 17010KT P6SM -SHRA SCT020 OVC040
     FM210500 16013KT P6SM -SHRA BKN020
     FM210600 16014KT P6SM -RA OVC025
     FM210700 18020G28KT P6SM -RA OVC050=

USA.gov is the U.S. government's official web portal to all federal, state and local government web resources and services.